Time;durP1;ratioP1;P1;durP2;ratioP2;P2;SDS_P1;SDS_P2;PMS_P1;PMS_P2;Temp;Humidity;BMP_temperature;BMP_pressure;BME280_temperature;BME280_humidity;BME280_pressure;Samples;Min_cycle;Max_cycle;Signal;HPM_P1;HPM_P2
2024/03/31 00:02:07;;;;;;;2.67;0.50;;;;;;;7.52;100.00;98033.44;4911490;29;20062;-90
2024/03/31 00:06:24;;;;;;;;;;;;;;;;;;;;;
2024/03/31 00:17:20;;;;;;;3.03;0.50;;;;;;;6.57;100.00;98047.09;4939451;29;20031;-91
2024/03/31 00:19:46;;;;;;;2.03;0.38;;;;;;;6.62;100.00;98033.44;4915439;28;20058;-89
2024/03/31 00:22:12;;;;;;;3.58;0.40;;;;;;;6.36;100.00;98034.66;4997446;28;20499;-93
2024/03/31 00:24:38;;;;;;;5.57;0.60;;;;;;;6.35;100.00;98015.47;4976766;28;20167;-90
2024/03/31 00:27:12;;;;;;;0.55;0.30;;;;;;;6.29;100.00;98005.69;4963482;28;20092;-92
2024/03/31 00:29:50;;;;;;;2.40;0.40;;;;;;;6.25;100.00;98007.84;4979627;28;20057;-94
2024/03/31 00:32:20;;;;;;;2.20;0.70;;;;;;;6.26;100.00;97995.56;4980522;28;20033;-93
2024/03/31 00:34:49;;;;;;;3.25;0.40;;;;;;;6.25;100.00;97994.75;4976978;28;20054;-94
2024/03/31 00:37:18;;;;;;;1.55;0.63;;;;;;;6.19;100.00;97995.44;4977101;28;20046;-94
2024/03/31 00:39:50;;;;;;;3.42;1.40;;;;;;;6.19;100.00;97984.94;4994576;28;20064;-94
2024/03/31 00:42:22;;;;;;;5.82;0.80;;;;;;;6.25;100.00;97986.03;4983249;28;20052;-94
2024/03/31 00:44:52;;;;;;;6.47;0.80;;;;;;;6.29;100.00;97987.34;4962742;28;20102;-94
2024/03/31 00:47:32;;;;;;;2.65;0.30;;;;;;;6.25;100.00;97983.41;4980921;28;20049;-93
2024/03/31 00:50:24;;;;;;;2.63;0.47;;;;;;;6.26;100.00;97979.81;4980330;28;20124;-95
2024/03/31 00:53:38;;;;;;;;;;;;;;;;;;;;;
2024/03/31 00:56:46;;;;;;;2.38;0.70;;;;;;;6.43;100.00;97965.53;4994151;28;20034;-95
2024/03/31 00:59:55;;;;;;;3.63;0.60;;;;;;;6.48;100.00;97957.16;4995199;28;20089;-90
2024/03/31 01:02:29;;;;;;;2.92;0.40;;;;;;;6.56;100.00;97958.88;4975616;28;20841;-89
2024/03/31 01:05:04;;;;;;;2.13;0.68;;;;;;;6.49;100.00;97956.16;4963709;28;20030;-95
2024/03/31 01:07:33;;;;;;;2.72;0.70;;;;;;;6.48;100.00;97941.41;4966452;28;20038;-94
2024/03/31 01:10:10;;;;;;;3.13;0.60;;;;;;;6.47;100.00;97938.97;4954307;28;20030;-96
2024/03/31 01:13:09;;;;;;;1.20;0.40;;;;;;;6.50;100.00;97936.78;4972253;28;20069;-96
2024/03/31 01:16:31;;;;;;;2.17;0.38;;;;;;;6.45;100.00;97931.25;4971736;28;20034;-96
2024/03/31 01:20:04;;;;;;;3.50;0.40;;;;;;;6.37;100.00;97920.84;4949827;28;20527;-95
2024/03/31 01:22:31;;;;;;;0.50;0.20;;;;;;;6.23;100.00;97928.50;4961209;28;20084;-94
2024/03/31 01:25:17;;;;;;;1.58;0.28;;;;;;;6.17;100.00;97934.47;4959950;28;20529;-93
2024/03/31 01:31:44;;;;;;;2.92;0.43;;;;;;;5.99;100.00;97919.84;4977893;28;20069;-91
2024/03/31 01:34:31;;;;;;;2.63;0.20;;;;;;;5.92;100.00;97922.38;4982569;28;20034;-93
2024/03/31 01:37:01;;;;;;;2.70;0.30;;;;;;;5.92;100.00;97922.38;4961784;28;20041;-94
2024/03/31 01:39:58;;;;;;;0.52;0.20;;;;;;;5.90;100.00;97918.28;4990571;28;20026;-95
2024/03/31 01:42:47;;;;;;;3.90;0.50;;;;;;;5.78;100.00;97913.44;4973030;28;20038;-93
2024/03/31 01:45:19;;;;;;;;;;;;;;;5.93;100.00;97904.81;4964153;28;20124;-95
2024/03/31 01:47:54;;;;;;;3.92;0.60;;;;;;;5.99;100.00;97903.31;4977048;28;19913;-94
2024/03/31 01:50:51;;;;;;;0.20;0.08;;;;;;;5.80;100.00;97914.09;4967724;28;20037;-94
2024/03/31 01:53:45;;;;;;;0.85;0.30;;;;;;;5.81;100.00;97905.22;4988764;28;20042;-89
2024/03/31 01:56:29;;;;;;;4.20;0.65;;;;;;;5.83;100.00;97907.69;4985984;28;20516;-95
2024/03/31 01:58:58;;;;;;;0.85;0.10;;;;;;;5.79;100.00;97906.41;4961852;28;20057;-90
2024/03/31 02:02:40;;;;;;;4.05;0.38;;;;;;;5.79;100.00;97906.41;4999892;28;20626;-94
2024/03/31 02:05:13;;;;;;;3.53;0.52;;;;;;;5.75;100.00;97894.66;4981182;28;20034;-86
2024/03/31 02:07:45;;;;;;;3.22;0.40;;;;;;;5.73;100.00;97901.88;4994779;28;20093;-86
2024/03/31 02:13:28;;;;;;;2.42;0.28;;;;;;;5.89;100.00;97891.25;4959485;28;20050;-86
2024/03/31 02:16:00;;;;;;;0.57;0.20;;;;;;;5.92;100.00;97904.03;4978455;28;20030;-87
2024/03/31 02:18:33;;;;;;;5.15;1.40;;;;;;;5.90;100.00;97884.19;4995911;28;20219;-90
2024/03/31 02:20:59;;;;;;;2.58;0.60;;;;;;;5.95;100.00;97890.56;4976875;28;20045;-83
2024/03/31 02:23:47;;;;;;;1.83;0.60;;;;;;;6.04;100.00;97893.09;4978311;28;20129;-85
2024/03/31 02:26:13;;;;;;;1.80;0.22;;;;;;;5.96;100.00;97886.09;4958097;28;20038;-81
2024/03/31 02:28:54;;;;;;;1.15;0.38;;;;;;;5.95;100.00;97911.53;4981991;28;20141;-88
2024/03/31 02:31:44;;;;;;;5.95;0.65;;;;;;;5.87;100.00;97908.16;4943391;28;20044;-89
2024/03/31 02:34:14;;;;;;;1.20;0.55;;;;;;;5.90;100.00;97900.75;4985820;28;20107;-91
2024/03/31 02:36:40;;;;;;;0.65;0.30;;;;;;;5.81;100.00;97899.19;4962412;28;20045;-90
2024/03/31 02:39:25;;;;;;;3.15;0.68;;;;;;;5.93;100.00;97905.66;5012221;28;20057;-83
2024/03/31 02:42:09;;;;;;;3.88;0.65;;;;;;;5.87;100.00;97905.53;4995786;28;20064;-83
2024/03/31 02:44:40;;;;;;;7.22;0.93;;;;;;;6.01;100.00;97914.41;4958326;28;20061;-86
2024/03/31 02:47:24;;;;;;;0.45;0.40;;;;;;;5.92;100.00;97911.88;4994321;28;20508;-84
2024/03/31 02:49:50;;;;;;;5.63;0.88;;;;;;;5.99;100.00;97919.84;4976842;28;20116;-87
2024/03/31 02:52:16;;;;;;;3.85;0.88;;;;;;;5.99;100.00;97919.84;4993883;28;20541;-86
2024/03/31 02:54:42;;;;;;;8.38;1.10;;;;;;;6.09;100.00;97911.75;4977329;28;20394;-82
2024/03/31 02:57:10;;;;;;;3.17;0.65;;;;;;;6.05;100.00;97913.91;4984628;28;20054;-81
2024/03/31 03:00:09;;;;;;;1.80;0.60;;;;;;;6.07;100.00;97903.25;4960225;28;20035;-86
2024/03/31 03:03:14;;;;;;;4.78;0.70;;;;;;;6.14;100.00;97908.59;4988383;28;20097;-86
2024/03/31 03:05:57;;;;;;;1.10;0.52;;;;;;;6.13;100.00;97904.34;4960888;28;20041;-85
2024/03/31 03:08:26;;;;;;;6.78;1.20;;;;;;;6.19;100.00;97917.59;4997094;28;20042;-85
2024/03/31 03:11:03;;;;;;;5.40;1.10;;;;;;;6.27;100.00;97916.69;4997598;28;20069;-83
2024/03/31 03:13:47;;;;;;;8.07;1.73;;;;;;;6.24;100.00;97898.69;4959573;28;20133;-84
2024/03/31 03:16:19;;;;;;;4.57;0.93;;;;;;;6.24;100.00;97898.69;5002182;28;20045;-81
2024/03/31 03:18:50;;;;;;;1.02;0.60;;;;;;;6.35;100.00;97901.84;4996800;28;20089;-89
2024/03/31 03:21:20;;;;;;;5.78;1.25;;;;;;;6.48;100.00;97898.59;4982499;28;20026;-86
2024/03/31 03:23:46;;;;;;;6.60;1.10;;;;;;;6.53;100.00;97902.28;4997187;28;20118;-84
2024/03/31 03:26:14;;;;;;;4.22;0.85;;;;;;;6.57;100.00;97898.31;4994842;28;20117;-91
2024/03/31 03:28:50;;;;;;;5.53;1.50;;;;;;;6.77;100.00;97910.09;4960698;28;20042;-90
2024/03/31 03:31:26;;;;;;;5.03;0.70;;;;;;;6.77;100.00;97886.47;4994251;28;20095;-90
2024/03/31 03:33:58;;;;;;;7.32;1.67;;;;;;;6.96;100.00;97892.91;4991214;28;20030;-82
2024/03/31 03:36:30;;;;;;;3.97;1.52;;;;;;;7.01;100.00;97887.13;4977195;28;20037;-91
2024/03/31 03:38:56;;;;;;;12.95;2.55;;;;;;;7.05;100.00;97870.81;4973148;28;20121;-82
2024/03/31 03:41:32;;;;;;;;;;;;;;;7.02;100.00;97875.63;4964878;28;20061;-89
2024/03/31 03:44:01;;;;;;;8.57;1.67;;;;;;;7.09;100.00;97875.72;4978493;28;19914;-90
2024/03/31 03:46:27;;;;;;;10.07;1.58;;;;;;;7.16;100.00;97876.56;4964832;28;20046;-85
2024/03/31 03:49:07;;;;;;;10.70;1.95;;;;;;;7.24;100.00;97862.50;4953429;28;20432;-83
2024/03/31 03:51:33;;;;;;;11.82;2.15;;;;;;;7.19;100.00;97870.94;4976362;28;20038;-86
2024/03/31 03:53:59;;;;;;;10.02;1.40;;;;;;;7.21;100.00;97871.59;4983834;28;20040;-83
2024/03/31 03:56:25;;;;;;;2.83;0.80;;;;;;;7.24;100.00;97867.75;4963621;28;20042;-83
2024/03/31 03:58:51;;;;;;;3.65;0.90;;;;;;;7.27;100.00;97870.03;4956671;28;20128;-86
2024/03/31 04:01:17;;;;;;;6.72;1.38;;;;;;;7.29;100.00;97866.19;4981855;28;20125;-86
2024/03/31 04:03:43;;;;;;;18.13;2.70;;;;;;;7.29;100.00;97875.91;4959734;28;20470;-84
2024/03/31 04:06:09;;;;;;;13.45;2.20;;;;;;;7.29;100.00;97863.56;4973654;28;20034;-84
2024/03/31 04:08:35;;;;;;;5.55;1.13;;;;;;;7.33;100.00;97866.63;4957048;28;20041;-83
2024/03/31 04:11:01;;;;;;;6.90;1.15;;;;;;;7.32;100.00;97863.22;4947818;28;20057;-82
2024/03/31 04:13:26;;;;;;;7.28;1.30;;;;;;;7.33;100.00;97853.50;4955394;28;20041;-83
2024/03/31 04:15:57;;;;;;;11.70;1.35;;;;;;;7.49;100.00;97857.69;4963219;28;20026;-82
2024/03/31 04:18:23;;;;;;;8.45;1.95;;;;;;;7.57;100.00;97854.94;4960060;28;20036;-83
2024/03/31 04:20:49;;;;;;;14.55;2.80;;;;;;;7.60;100.00;97856.38;4953288;28;20034;-83
2024/03/31 04:23:15;;;;;;;11.65;2.80;;;;;;;7.67;100.00;97859.88;4984683;28;20053;-81
2024/03/31 04:25:41;;;;;;;6.72;1.35;;;;;;;7.72;100.00;97848.81;4953806;28;20552;-83
2024/03/31 04:28:07;;;;;;;7.15;1.50;;;;;;;7.73;100.00;97850.41;4958368;28;20057;-82
2024/03/31 04:30:43;;;;;;;14.18;2.15;;;;;;;7.80;100.00;97859.16;4958384;28;20391;-82
2024/03/31 04:33:12;;;;;;;6.88;1.83;;;;;;;7.84;100.00;97856.13;4956923;28;20553;-82
2024/03/31 04:35:39;;;;;;;6.38;1.60;;;;;;;7.84;100.00;97858.78;4984193;28;20045;-82
2024/03/31 04:38:05;;;;;;;12.80;2.00;;;;;;;7.85;100.00;97861.22;4974530;28;20056;-81
2024/03/31 04:40:32;;;;;;;11.73;2.40;;;;;;;7.84;100.00;97859.59;4956150;28;20771;-83
2024/03/31 04:42:58;;;;;;;5.25;1.70;;;;;;;7.84;100.00;97853.50;4984689;28;20025;-83
2024/03/31 04:45:24;;;;;;;11.27;1.90;;;;;;;7.83;100.00;97857.97;4968822;28;20474;-82
2024/03/31 04:47:51;;;;;;;10.38;2.28;;;;;;;7.82;100.00;97854.53;4970760;28;20112;-80
2024/03/31 04:50:18;;;;;;;4.75;1.20;;;;;;;7.79;100.00;97852.28;4953272;28;20442;-81
2024/03/31 04:52:45;;;;;;;9.43;1.58;;;;;;;7.74;100.00;97859.13;4981742;28;20034;-82
2024/03/31 04:55:10;;;;;;;8.82;1.35;;;;;;;7.76;100.00;97865.00;4958936;28;20045;-81
2024/03/31 04:57:40;;;;;;;6.15;0.90;;;;;;;7.76;100.00;97870.25;4968658;28;20061;-83
2024/03/31 05:00:08;;;;;;;6.97;1.30;;;;;;;7.81;100.00;97868.69;4989700;28;20096;-84
2024/03/31 05:02:34;;;;;;;9.23;1.27;;;;;;;7.84;100.00;97875.38;4976116;28;20037;-84
2024/03/31 05:05:01;;;;;;;4.28;0.88;;;;;;;7.81;100.00;97873.94;5010397;28;20116;-85
2024/03/31 05:07:27;;;;;;;7.35;1.08;;;;;;;7.81;100.00;97881.84;5011203;28;20506;-82
2024/03/31 05:09:53;;;;;;;3.88;0.80;;;;;;;7.81;100.00;97879.22;4986661;28;20032;-84
2024/03/31 05:12:29;;;;;;;1.75;0.47;;;;;;;7.76;100.00;97886.03;4989872;28;20120;-86
2024/03/31 05:14:54;;;;;;;3.88;0.45;;;;;;;7.73;100.00;97871.44;4990395;28;20034;-84
2024/03/31 05:17:20;;;;;;;2.28;0.60;;;;;;;7.71;100.00;97876.06;4996427;28;20041;-85
2024/03/31 05:19:51;;;;;;;2.05;0.43;;;;;;;7.71;100.00;97867.41;4994002;28;20580;-82
2024/03/31 05:22:17;;;;;;;3.00;0.45;;;;;;;7.58;100.00;97871.50;5000014;28;20041;-82
2024/03/31 05:24:45;;;;;;;5.57;0.50;;;;;;;7.58;100.00;97876.78;4977672;28;20045;-85
2024/03/31 05:27:11;;;;;;;1.42;0.32;;;;;;;7.63;100.00;97873.59;4999143;28;20037;-84
2024/03/31 05:29:40;;;;;;;2.22;0.50;;;;;;;7.62;100.00;97870.16;4976716;28;20532;-86
2024/03/31 05:32:06;;;;;;;2.58;0.40;;;;;;;7.62;100.00;97880.66;5027207;28;20051;-85
2024/03/31 05:34:58;;;;;;;2.53;0.40;;;;;;;7.60;100.00;97890.53;4981607;28;20085;-82
2024/03/31 05:37:24;;;;;;;2.10;0.43;;;;;;;7.57;100.00;97894.38;4978709;28;20036;-83
2024/03/31 05:39:50;;;;;;;0.75;0.38;;;;;;;7.53;100.00;97890.47;5008917;28;20038;-87
2024/03/31 05:42:17;;;;;;;3.13;0.30;;;;;;;7.56;100.00;97898.00;4995430;28;20041;-84
2024/03/31 05:44:43;;;;;;;1.77;0.50;;;;;;;7.52;100.00;97904.63;4994142;28;20421;-87
2024/03/31 05:47:09;;;;;;;1.50;0.30;;;;;;;7.62;100.00;97904.31;4988488;28;20069;-86
2024/03/31 05:49:35;;;;;;;1.20;0.30;;;;;;;7.54;100.00;97904.44;4978520;28;20041;-80
2024/03/31 05:52:00;;;;;;;1.40;0.40;;;;;;;7.54;100.00;97913.16;4980759;28;20048;-80
2024/03/31 05:54:26;;;;;;;1.52;0.30;;;;;;;7.54;100.00;97909.69;4987655;28;20963;-80
2024/03/31 05:56:54;;;;;;;0.80;0.28;;;;;;;7.55;100.00;97912.13;5007329;28;20131;-81
2024/03/31 05:59:20;;;;;;;3.20;0.30;;;;;;;7.60;100.00;97911.56;4979439;28;20034;-81
2024/03/31 06:01:46;;;;;;;1.25;0.30;;;;;;;7.59;100.00;97912.59;5010601;28;20037;-80
2024/03/31 06:04:12;;;;;;;1.80;0.25;;;;;;;7.53;100.00;97900.19;4969620;28;20079;-80
2024/03/31 06:06:38;;;;;;;1.00;0.30;;;;;;;7.55;100.00;97906.06;4984703;28;20045;-80
2024/03/31 06:09:04;;;;;;;2.72;0.60;;;;;;;7.52;100.00;97909.06;4979477;28;20037;-80
2024/03/31 06:11:30;;;;;;;1.35;0.30;;;;;;;7.48;100.00;97919.16;4974106;28;20124;-81
2024/03/31 06:13:57;;;;;;;1.08;0.15;;;;;;;7.49;100.00;97922.59;4973609;28;20458;-82
2024/03/31 06:16:24;;;;;;;0.40;0.20;;;;;;;7.49;100.00;97936.56;5016822;28;20037;-85
2024/03/31 06:18:50;;;;;;;0.20;0.10;;;;;;;7.50;100.00;97934.75;4980847;28;20037;-81
2024/03/31 06:21:18;;;;;;;2.47;0.93;;;;;;;7.45;100.00;97927.41;4969436;28;20029;-81
2024/03/31 06:23:44;;;;;;;0.10;0.10;;;;;;;7.51;100.00;97928.47;4990629;28;20046;-82
2024/03/31 06:26:10;;;;;;;2.85;1.05;;;;;;;7.44;100.00;97936.28;4995050;28;20921;-85
2024/03/31 06:28:36;;;;;;;2.97;0.28;;;;;;;7.46;100.00;97942.19;4978254;28;20037;-86
2024/03/31 06:31:08;;;;;;;1.75;0.20;;;;;;;7.52;100.00;97943.25;5022437;28;20539;-81
2024/03/31 06:33:36;;;;;;;2.33;0.20;;;;;;;7.52;100.00;97948.50;4971310;28;20052;-82
2024/03/31 06:36:04;;;;;;;0.80;0.30;;;;;;;7.54;100.00;97944.69;4997737;28;20040;-85
2024/03/31 06:38:29;;;;;;;1.30;0.10;;;;;;;7.61;100.00;97959.72;4985014;28;20029;-85
2024/03/31 06:40:56;;;;;;;0.80;0.20;;;;;;;7.62;100.00;97956.09;4976450;28;20030;-85
2024/03/31 06:43:22;;;;;;;2.17;0.20;;;;;;;7.56;100.00;97953.19;4985353;28;20044;-87
2024/03/31 06:45:49;;;;;;;3.30;0.20;;;;;;;7.56;100.00;97957.66;4982485;28;20429;-86
2024/03/31 06:48:16;;;;;;;0.77;0.13;;;;;;;7.54;100.00;97952.59;4978803;28;20041;-86
2024/03/31 06:50:43;;;;;;;0.00;0.00;;;;;;;7.57;100.00;97954.84;4980634;28;20042;-81
2024/03/31 06:53:09;;;;;;;0.75;0.08;;;;;;;7.50;100.00;97958.41;4979845;28;20358;-80
2024/03/31 06:55:35;;;;;;;0.25;0.10;;;;;;;7.51;100.00;97963.47;4984455;28;20131;-86
2024/03/31 06:58:01;;;;;;;0.10;0.10;;;;;;;7.41;100.00;97963.75;4991367;28;20041;-85
2024/03/31 07:00:27;;;;;;;1.95;0.13;;;;;;;7.41;100.00;97968.19;4992875;28;20037;-82
2024/03/31 07:02:53;;;;;;;4.10;0.35;;;;;;;7.38;100.00;97966.75;4974096;28;20037;-82
2024/03/31 07:05:19;;;;;;;2.10;0.20;;;;;;;7.41;100.00;97968.19;4995420;28;20136;-81
2024/03/31 07:07:46;;;;;;;3.22;0.20;;;;;;;7.41;100.00;97966.38;4981359;28;20114;-85
2024/03/31 07:10:13;;;;;;;1.45;0.40;;;;;;;7.45;100.00;97961.59;4979119;28;20049;-83
2024/03/31 07:12:40;;;;;;;1.13;0.22;;;;;;;7.50;100.00;97959.19;4995193;28;20034;-83
2024/03/31 07:15:07;;;;;;;1.90;0.20;;;;;;;7.52;100.00;97962.47;4981005;28;20488;-86
2024/03/31 07:17:34;;;;;;;1.13;0.20;;;;;;;7.51;100.00;97966.09;4982568;28;20029;-86
2024/03/31 07:20:04;;;;;;;0.47;0.28;;;;;;;7.53;100.00;97971.97;4991857;28;20040;-87
2024/03/31 07:22:30;;;;;;;1.88;0.60;;;;;;;7.57;100.00;97975.03;4983618;28;20106;-86
2024/03/31 07:24:56;;;;;;;2.63;0.40;;;;;;;7.61;100.00;97978.94;4983300;28;20037;-85
2024/03/31 07:27:22;;;;;;;1.20;0.20;;;;;;;7.55;100.00;97977.03;4998716;28;20029;-86
2024/03/31 07:29:51;;;;;;;2.88;0.20;;;;;;;7.61;100.00;97993.91;4994066;28;20044;-87
2024/03/31 07:32:19;;;;;;;0.50;0.20;;;;;;;7.60;100.00;97997.53;4978947;28;20100;-88
2024/03/31 07:34:51;;;;;;;2.55;0.30;;;;;;;7.52;100.00;97998.44;4991016;28;20041;-88
2024/03/31 07:37:21;;;;;;;0.68;0.30;;;;;;;7.59;100.00;98009.03;4977160;28;20074;-86
2024/03/31 07:39:47;;;;;;;4.90;0.30;;;;;;;7.62;100.00;98004.22;4972107;28;20072;-87
2024/03/31 07:42:13;;;;;;;2.33;0.38;;;;;;;7.68;100.00;97997.41;4979382;28;20048;-85
2024/03/31 07:44:46;;;;;;;1.13;0.40;;;;;;;7.77;100.00;97996.28;4978428;28;20021;-86
2024/03/31 07:47:15;;;;;;;2.25;0.30;;;;;;;7.76;100.00;98006.97;4983490;28;20045;-85
2024/03/31 07:49:44;;;;;;;3.03;0.60;;;;;;;7.78;100.00;98005.00;4979079;28;20442;-86
2024/03/31 07:52:18;;;;;;;3.92;1.80;;;;;;;7.83;100.00;98005.25;4978666;28;20041;-85
2024/03/31 07:54:47;;;;;;;1.98;0.50;;;;;;;7.87;100.00;98001.25;4998195;28;20120;-86
2024/03/31 07:57:22;;;;;;;1.98;0.60;;;;;;;7.92;100.00;98003.31;4999525;28;20049;-89
2024/03/31 07:59:47;;;;;;;5.97;0.73;;;;;;;7.93;100.00;98012.84;4996025;28;20157;-87
2024/03/31 08:02:13;;;;;;;2.38;0.50;;;;;;;7.90;100.00;98018.47;5004347;28;20505;-85
2024/03/31 08:04:43;;;;;;;3.10;0.45;;;;;;;8.02;100.00;98016.97;4975793;28;20132;-84
2024/03/31 08:07:08;;;;;;;2.95;0.77;;;;;;;8.00;100.00;98015.50;4977944;28;20022;-86
2024/03/31 08:09:34;;;;;;;2.25;0.40;;;;;;;7.99;100.00;98027.88;5008381;28;20033;-87
2024/03/31 08:12:00;;;;;;;1.75;0.60;;;;;;;7.98;100.00;98017.53;4983009;28;20079;-86
2024/03/31 08:14:26;;;;;;;2.28;0.40;;;;;;;7.99;100.00;98016.53;4988390;28;20042;-82
2024/03/31 08:16:52;;;;;;;4.50;0.50;;;;;;;7.98;100.00;98015.69;4983289;28;20037;-82
2024/03/31 08:19:22;;;;;;;2.70;0.55;;;;;;;7.96;100.00;98019.53;5010012;28;20552;-84
2024/03/31 08:21:48;;;;;;;2.55;0.50;;;;;;;7.96;100.00;98017.72;4993668;28;20056;-84
2024/03/31 08:24:17;;;;;;;1.25;0.50;;;;;;;7.99;100.00;98014.72;4977978;28;20087;-87
2024/03/31 08:26:58;;;;;;;3.25;0.50;;;;;;;8.04;100.00;98019.41;4984141;28;20490;-86
2024/03/31 08:29:24;;;;;;;2.83;0.52;;;;;;;8.06;100.00;98025.28;4983799;28;20156;-88
2024/03/31 08:32:02;;;;;;;4.68;0.70;;;;;;;7.99;100.00;98030.50;4995082;28;20040;-84
2024/03/31 08:34:30;;;;;;;2.90;0.93;;;;;;;8.05;100.00;98042.91;4982046;28;20033;-85
2024/03/31 08:37:08;;;;;;;7.00;1.10;;;;;;;8.02;100.00;98040.66;4985197;28;20151;-84
2024/03/31 08:39:34;;;;;;;7.75;1.00;;;;;;;8.09;100.00;98042.53;4973449;28;20107;-83
2024/03/31 08:42:36;;;;;;;4.18;0.68;;;;;;;8.17;100.00;98037.16;4988637;28;20042;-83
2024/03/31 08:45:04;;;;;;;5.20;0.93;;;;;;;8.14;100.00;98038.31;4989912;28;20095;-81
2024/03/31 08:50:36;;;;;;;12.88;2.15;;;;;;;8.23;100.00;98033.75;5003431;28;20091;-84
2024/03/31 08:53:10;;;;;;;12.80;2.35;;;;;;;8.30;100.00;98041.69;4978820;28;20038;-84
2024/03/31 08:55:42;;;;;;;7.47;1.40;;;;;;;8.26;100.00;98043.09;4992639;28;20488;-84
2024/03/31 08:58:08;;;;;;;9.05;2.03;;;;;;;8.27;100.00;98049.97;4998291;28;20057;-84
2024/03/31 09:00:36;;;;;;;15.70;4.03;;;;;;;8.27;100.00;98045.53;4994003;28;20044;-83
2024/03/31 09:03:04;;;;;;;6.32;1.60;;;;;;;8.34;100.00;98050.84;5004446;28;20029;-83
2024/03/31 09:05:31;;;;;;;6.88;2.13;;;;;;;8.36;100.00;98051.47;5000705;28;20033;-83
2024/03/31 09:07:58;;;;;;;12.00;2.50;;;;;;;8.41;100.00;98058.78;4970863;28;20119;-83
2024/03/31 09:10:25;;;;;;;13.05;2.95;;;;;;;8.38;100.00;98054.72;5004262;28;20048;-82
2024/03/31 09:12:52;;;;;;;13.75;2.60;;;;;;;8.46;100.00;98066.94;4973121;28;20034;-81
2024/03/31 09:15:18;;;;;;;12.75;2.25;;;;;;;8.37;100.00;98066.28;4976852;28;20066;-84
2024/03/31 09:17:43;;;;;;;8.65;2.42;;;;;;;8.40;100.00;98067.69;4994298;28;20056;-83
2024/03/31 09:20:11;;;;;;;13.98;2.55;;;;;;;8.44;100.00;98075.03;4991510;28;20833;-83
2024/03/31 09:22:40;;;;;;;12.65;2.28;;;;;;;8.58;100.00;98066.47;4988063;28;20041;-84
2024/03/31 09:25:08;;;;;;;16.27;2.95;;;;;;;8.55;100.00;98065.81;4989748;28;20028;-81
2024/03/31 09:27:35;;;;;;;10.85;2.30;;;;;;;8.67;100.00;98062.69;4970262;28;20038;-81
2024/03/31 09:30:01;;;;;;;14.40;2.53;;;;;;;8.76;100.00;98066.00;4981514;28;20033;-83
2024/03/31 09:32:27;;;;;;;12.00;2.33;;;;;;;8.73;100.00;98069.81;4972017;28;20120;-84
2024/03/31 09:34:54;;;;;;;11.27;3.45;;;;;;;8.83;100.00;98073.94;4968970;28;20383;-82
2024/03/31 09:37:33;;;;;;;8.23;2.10;;;;;;;8.83;100.00;98077.38;4991306;28;20470;-80
2024/03/31 09:40:11;;;;;;;18.63;3.55;;;;;;;8.79;100.00;98076.16;5009139;28;20030;-88
2024/03/31 09:42:37;;;;;;;12.02;2.80;;;;;;;8.88;100.00;98075.00;4979682;28;20397;-90
2024/03/31 09:45:04;;;;;;;13.35;3.15;;;;;;;8.98;100.00;98077.28;4973462;28;20025;-79
2024/03/31 09:47:40;;;;;;;13.57;2.58;;;;;;;9.02;100.00;98080.34;4972442;28;20440;-83
2024/03/31 09:50:34;;;;;;;11.95;2.63;;;;;;;8.97;100.00;98080.09;4987851;28;20073;-82
2024/03/31 09:53:04;;;;;;;8.35;2.15;;;;;;;8.93;100.00;98075.22;4983990;28;20029;-84
2024/03/31 09:55:38;;;;;;;8.13;2.35;;;;;;;8.87;100.00;98078.63;4972295;28;20486;-82
2024/03/31 09:58:11;;;;;;;13.63;2.08;;;;;;;8.76;100.00;98085.22;4989276;28;21247;-80
2024/03/31 10:00:42;;;;;;;13.00;2.55;;;;;;;8.83;100.00;98087.94;5007405;28;20087;-81
2024/03/31 10:03:27;;;;;;;14.32;2.65;;;;;;;8.85;100.00;98087.72;4974404;28;20030;-84
2024/03/31 10:05:54;;;;;;;13.15;2.15;;;;;;;8.77;100.00;98094.78;4973941;28;20037;-80
2024/03/31 10:08:21;;;;;;;14.95;3.00;;;;;;;8.82;100.00;98081.03;4993194;28;20053;-83
2024/03/31 10:10:48;;;;;;;8.55;1.98;;;;;;;8.75;100.00;98083.63;4991099;28;20037;-80
2024/03/31 10:13:16;;;;;;;7.65;1.98;;;;;;;8.74;100.00;98092.53;4984190;28;20124;-84
2024/03/31 10:15:44;;;;;;;16.17;3.40;;;;;;;8.92;100.00;98078.03;4972294;28;20041;-82
2024/03/31 10:18:11;;;;;;;8.88;2.00;;;;;;;8.94;100.00;98086.59;4995227;28;20033;-84
2024/03/31 10:20:38;;;;;;;8.90;2.90;;;;;;;9.11;100.00;98084.47;4978648;28;20041;-81
2024/03/31 10:23:04;;;;;;;18.48;4.07;;;;;;;9.30;100.00;98076.88;5009218;28;20037;-81
2024/03/31 10:25:34;;;;;;;8.10;2.47;;;;;;;9.28;100.00;98077.06;5022184;28;20474;-82
2024/03/31 10:28:03;;;;;;;13.43;2.80;;;;;;;9.33;100.00;98065.94;4992315;28;20412;-83
2024/03/31 10:30:37;;;;;;;5.97;1.80;;;;;;;9.39;100.00;98086.25;4977885;28;20040;-86
2024/03/31 10:33:03;;;;;;;9.77;2.47;;;;;;;9.58;100.00;98085.72;4976990;28;20036;-81
2024/03/31 10:35:32;;;;;;;11.38;2.63;;;;;;;9.71;100.00;98085.78;4998647;28;20029;-82
2024/03/31 10:37:58;;;;;;;12.50;2.53;;;;;;;9.78;100.00;98073.41;4973882;28;20072;-82
2024/03/31 10:40:25;;;;;;;15.63;3.22;;;;;;;9.89;100.00;98077.31;5005290;28;20035;-80
2024/03/31 10:42:53;;;;;;;10.50;2.50;;;;;;;9.84;100.00;98069.19;4988992;28;20041;-80
2024/03/31 10:45:19;;;;;;;7.97;2.63;;;;;;;9.81;100.00;98077.47;4975184;28;20096;-82
2024/03/31 10:47:46;;;;;;;15.00;3.65;;;;;;;9.74;100.00;98085.38;4973613;28;20540;-83
2024/03/31 10:50:12;;;;;;;11.98;2.25;;;;;;;9.70;100.00;98076.22;4982312;28;20492;-81
2024/03/31 10:52:39;;;;;;;9.80;2.75;;;;;;;9.57;100.00;98087.56;4976118;28;20034;-80
2024/03/31 10:55:09;;;;;;;10.45;2.92;;;;;;;9.75;100.00;98080.91;4987933;28;20107;-82
2024/03/31 10:57:36;;;;;;;8.45;2.63;;;;;;;9.77;100.00;98089.44;4989265;28;20049;-86
2024/03/31 11:00:05;;;;;;;15.00;2.33;;;;;;;9.47;100.00;98092.34;4987672;28;20544;-84
2024/03/31 11:06:16;;;;;;;11.80;2.63;;;;;;;9.42;100.00;98085.03;5002142;28;20083;-86
2024/03/31 11:08:45;;;;;;;15.27;2.38;;;;;;;9.54;100.00;98085.28;5007407;28;20025;-81
2024/03/31 11:11:11;;;;;;;8.85;2.28;;;;;;;9.55;100.00;98092.19;5008003;28;20407;-83
2024/03/31 11:13:38;;;;;;;16.63;2.90;;;;;;;9.65;100.00;98087.38;4993536;28;20033;-83
2024/03/31 11:16:08;;;;;;;6.10;1.13;;;;;;;9.58;100.00;98098.91;4992607;28;20033;-83
2024/03/31 11:18:35;;;;;;;3.60;1.13;;;;;;;9.64;100.00;98087.56;4971106;28;20042;-84
2024/03/31 11:21:08;;;;;;;16.95;2.40;;;;;;;9.88;100.00;98085.41;4986937;28;20493;-81
2024/03/31 11:23:38;;;;;;;9.25;2.28;;;;;;;10.00;100.00;98094.38;4964846;28;20064;-87
2024/03/31 11:26:05;;;;;;;4.13;1.40;;;;;;;9.92;100.00;98097.22;4991236;28;20033;-83
2024/03/31 11:28:35;;;;;;;2.72;1.20;;;;;;;9.58;100.00;98086.53;4981979;28;20352;-84
2024/03/31 11:31:01;;;;;;;9.25;1.77;;;;;;;9.67;100.00;98082.72;4978432;28;20469;-81
2024/03/31 11:33:28;;;;;;;8.38;1.20;;;;;;;9.79;100.00;98082.94;5019968;28;20526;-82
2024/03/31 11:35:58;;;;;;;5.60;1.00;;;;;;;9.79;100.00;98072.41;4975160;28;20398;-95
2024/03/31 11:38:30;;;;;;;4.22;0.75;;;;;;;9.65;100.00;98073.38;4993973;28;20489;-93
2024/03/31 11:40:58;;;;;;;4.20;1.15;;;;;;;9.79;100.00;98072.41;4994403;28;20900;-93
2024/03/31 11:43:24;;;;;;;1.73;0.90;;;;;;;9.91;100.00;98085.84;4974944;28;20042;-86
2024/03/31 11:45:53;;;;;;;2.80;0.63;;;;;;;9.86;100.00;98079.53;4995322;28;20164;-93
2024/03/31 11:48:19;;;;;;;6.97;1.02;;;;;;;10.01;100.00;98082.00;4982582;28;20041;-92
2024/03/31 11:51:00;;;;;;;2.17;0.57;;;;;;;9.86;100.00;98079.53;4997652;28;20478;-91
2024/03/31 11:53:33;;;;;;;5.82;2.08;;;;;;;9.94;100.00;98092.53;4979191;28;20041;-91
2024/03/31 11:55:59;;;;;;;3.20;0.85;;;;;;;10.05;100.00;98097.25;4979806;28;20039;-88
2024/03/31 11:58:26;;;;;;;5.18;1.30;;;;;;;10.22;100.00;98096.88;4957693;28;20605;-88
2024/03/31 12:00:52;;;;;;;5.22;1.30;;;;;;;10.35;100.00;98098.72;4954099;28;20038;-90
2024/03/31 12:03:18;;;;;;;9.05;1.45;;;;;;;10.55;100.00;98105.88;4956687;28;20037;-80
2024/03/31 12:05:48;;;;;;;6.95;1.35;;;;;;;10.52;100.00;98098.38;5009669;28;20045;-81
2024/03/31 12:08:16;;;;;;;7.47;1.20;;;;;;;10.57;100.00;98088.00;4993425;28;20042;-79
2024/03/31 12:10:46;;;;;;;3.58;1.10;;;;;;;10.64;100.00;98101.19;4985767;28;20565;-81
2024/03/31 12:13:13;;;;;;;3.50;0.88;;;;;;;10.71;100.00;98091.47;4962852;28;20045;-83
2024/03/31 12:15:42;;;;;;;4.97;1.02;;;;;;;10.71;100.00;98082.72;4969919;28;20030;-83
2024/03/31 12:18:11;;;;;;;5.78;1.23;;;;;;;10.84;100.00;98090.66;5003239;28;20037;-81